createdAt,value
2023-05-12T00:00:58.001Z,3.20
2023-05-12T00:03:26.512Z,3.37
2023-05-12T00:05:54.749Z,3.23
2023-05-12T00:08:22.780Z,3.50
2023-05-12T00:10:51.009Z,3.37
2023-05-12T00:13:23.534Z,3.37
2023-05-12T00:15:52.462Z,3.00
2023-05-12T00:18:20.891Z,3.20
2023-05-12T00:20:49.219Z,2.97
2023-05-12T00:23:17.487Z,3.40
2023-05-12T00:25:45.540Z,3.37
2023-05-12T00:28:13.562Z,2.63
2023-05-12T00:30:42.909Z,3.47
2023-05-12T00:33:10.972Z,2.70
2023-05-12T00:35:39.013Z,3.83
2023-05-12T00:38:07.087Z,3.30
2023-05-12T00:40:35.223Z,2.70
2023-05-12T00:43:03.450Z,4.27
2023-05-12T00:45:32.133Z,3.57
2023-05-12T00:48:01.535Z,2.90
2023-05-12T00:50:29.808Z,3.37
2023-05-12T00:52:59.407Z,3.00
2023-05-12T00:55:28.217Z,3.10
2023-05-12T00:57:56.997Z,4.20
2023-05-12T01:00:25.066Z,2.90
2023-05-12T01:02:53.177Z,3.57
2023-05-12T01:05:22.643Z,3.37
2023-05-12T01:07:51.066Z,3.87
2023-05-12T01:10:20.301Z,3.57
2023-05-12T01:12:49.206Z,3.43
2023-05-12T01:15:18.083Z,3.60
2023-05-12T01:17:53.722Z,2.83
2023-05-12T01:20:26.866Z,2.80
2023-05-12T01:22:56.656Z,3.20
2023-05-12T01:25:26.032Z,3.07
2023-05-12T01:27:55.502Z,2.93
2023-05-12T01:30:25.645Z,3.10
2023-05-12T01:32:54.523Z,2.80
2023-05-12T01:35:22.689Z,3.30
2023-05-12T01:37:51.946Z,3.23
2023-05-12T01:40:20.602Z,3.57
2023-05-12T01:42:48.788Z,3.17
2023-05-12T01:45:18.198Z,3.37
2023-05-12T01:47:46.242Z,3.23
2023-05-12T01:50:14.256Z,3.00
2023-05-12T01:52:42.379Z,3.03
2023-05-12T01:55:10.796Z,3.30
2023-05-12T01:57:38.859Z,3.20
2023-05-12T02:00:08.939Z,2.80
2023-05-12T02:02:39.662Z,2.70
2023-05-12T02:05:10.175Z,3.17
2023-05-12T02:07:38.222Z,3.30
2023-05-12T02:10:08.148Z,2.90
2023-05-12T02:12:36.175Z,3.20
2023-05-12T02:15:04.281Z,3.07
2023-05-12T02:17:32.368Z,3.13
2023-05-12T02:20:01.872Z,3.20
2023-05-12T02:22:29.832Z,2.93
2023-05-12T02:24:57.804Z,2.70
2023-05-12T02:27:25.786Z,3.40
2023-05-12T02:29:54.022Z,2.83
2023-05-12T02:32:22.558Z,2.90
2023-05-12T02:34:50.535Z,3.53
2023-05-12T02:37:19.882Z,3.40
2023-05-12T02:39:47.937Z,3.10
2023-05-12T02:42:16.348Z,2.70
2023-05-12T02:44:44.292Z,2.90
2023-05-12T02:47:12.321Z,2.70
2023-05-12T02:49:40.404Z,2.63
2023-05-12T02:52:08.428Z,3.03
2023-05-12T02:54:37.789Z,3.10
2023-05-12T02:57:07.288Z,2.67
2023-05-12T02:59:35.344Z,3.03
2023-05-12T03:02:04.891Z,3.03
2023-05-12T03:04:33.472Z,2.87
2023-05-12T03:07:01.510Z,3.00
2023-05-12T03:09:29.534Z,3.10
2023-05-12T03:11:58.813Z,2.93
2023-05-12T03:14:28.577Z,2.50
2023-05-12T03:16:56.631Z,2.30
2023-05-12T03:19:24.782Z,2.93
2023-05-12T03:21:52.828Z,2.80
2023-05-12T03:24:21.186Z,2.97
2023-05-12T03:26:49.172Z,2.87
2023-05-12T03:29:18.518Z,3.33
2023-05-12T03:31:46.580Z,2.90
2023-05-12T03:34:15.074Z,2.73
2023-05-12T03:36:43.303Z,3.40
2023-05-12T03:39:12.164Z,2.70
2023-05-12T03:41:40.175Z,2.70
2023-05-12T03:44:08.699Z,2.70
2023-05-12T03:46:38.335Z,3.07
2023-05-12T03:49:06.642Z,3.00
2023-05-12T03:51:34.686Z,3.13
2023-05-12T03:54:02.758Z,2.93
2023-05-12T03:56:30.808Z,2.70
2023-05-12T03:58:58.977Z,3.00
2023-05-12T04:01:26.993Z,2.77
2023-05-12T04:03:56.413Z,2.80
2023-05-12T04:06:24.522Z,2.80
2023-05-12T04:08:52.570Z,3.53
2023-05-12T04:11:20.633Z,2.80
2023-05-12T04:13:48.592Z,2.73
2023-05-12T04:16:16.754Z,3.07
2023-05-12T04:18:44.803Z,2.63
2023-05-12T04:21:14.284Z,3.20
2023-05-12T04:23:42.254Z,3.23
2023-05-12T04:26:10.320Z,3.17
2023-05-12T04:28:38.274Z,3.67
2023-05-12T04:31:06.401Z,2.90
2023-05-12T04:33:34.372Z,2.67
2023-05-12T04:36:02.409Z,2.80
2023-05-12T04:38:31.760Z,3.00
2023-05-12T04:41:00.344Z,3.10
2023-05-12T04:46:00.542Z,3.37
2023-05-12T04:48:29.022Z,3.20
2023-05-12T04:50:57.126Z,2.40
2023-05-12T04:53:25.216Z,3.23
2023-05-12T04:55:56.443Z,2.83
2023-05-12T04:58:24.492Z,3.07
2023-05-12T05:00:52.894Z,3.10
2023-05-12T05:03:21.048Z,2.80
2023-05-12T05:05:52.062Z,3.10
2023-05-12T05:08:20.282Z,2.83
2023-05-12T05:10:48.270Z,3.23
2023-05-12T05:13:17.672Z,3.20
2023-05-12T05:15:51.972Z,3.53
2023-05-12T05:18:23.192Z,2.93
2023-05-12T05:20:57.884Z,2.93
2023-05-12T05:23:27.233Z,2.93
2023-05-12T05:25:55.520Z,2.83
2023-05-12T05:28:26.501Z,2.47
2023-05-12T05:30:56.723Z,2.50
2023-05-12T05:33:24.961Z,2.97
2023-05-12T05:35:53.018Z,2.83
2023-05-12T05:38:21.308Z,3.40
2023-05-12T05:40:52.877Z,2.63
2023-05-12T05:43:23.887Z,2.87
2023-05-12T05:45:52.252Z,2.60
2023-05-12T05:48:20.974Z,2.20
2023-05-12T05:50:49.382Z,3.10
2023-05-12T05:53:18.333Z,2.77
2023-05-12T05:55:46.429Z,2.87
2023-05-12T05:58:15.121Z,3.20
2023-05-12T06:00:45.078Z,1.87
2023-05-12T06:03:13.329Z,2.20
2023-05-12T06:05:42.088Z,3.10
2023-05-12T06:08:13.041Z,2.80
2023-05-12T06:10:41.922Z,1.70
2023-05-12T06:13:09.907Z,2.13
2023-05-12T06:15:37.995Z,2.27
2023-05-12T06:18:07.569Z,2.13
2023-05-12T06:20:35.846Z,1.93
2023-05-12T06:23:03.872Z,2.23
2023-05-12T06:25:33.117Z,2.03
2023-05-12T06:28:01.203Z,2.30
2023-05-12T06:30:29.335Z,2.37
2023-05-12T06:32:57.431Z,2.30
2023-05-12T06:35:27.352Z,1.80
2023-05-12T06:37:55.331Z,2.10
2023-05-12T06:40:23.307Z,2.30
2023-05-12T06:42:51.361Z,2.77
2023-05-12T06:45:19.526Z,2.53
2023-05-12T06:47:47.755Z,2.53
2023-05-12T06:50:16.904Z,2.80
2023-05-12T06:52:46.846Z,2.30
2023-05-12T06:55:19.862Z,2.00
2023-05-12T06:57:48.218Z,2.20
2023-05-12T07:00:17.163Z,2.17
2023-05-12T07:02:45.164Z,2.20
2023-05-12T07:05:13.428Z,1.47
2023-05-12T07:07:41.483Z,1.60
2023-05-12T07:10:11.574Z,1.70
2023-05-12T07:12:40.036Z,2.30
2023-05-12T07:15:10.050Z,1.97
2023-05-12T07:17:38.206Z,2.00
2023-05-12T07:20:08.108Z,1.97
2023-05-12T07:22:38.677Z,2.40
2023-05-12T07:25:08.523Z,2.57
2023-05-12T07:27:37.845Z,1.77
2023-05-12T07:30:07.821Z,1.90
2023-05-12T07:32:36.368Z,1.80
2023-05-12T07:35:05.152Z,1.63
2023-05-12T07:37:33.216Z,2.00
2023-05-12T07:40:01.432Z,1.60
2023-05-12T07:42:29.818Z,1.73
2023-05-12T07:44:59.726Z,2.20
2023-05-12T07:47:28.798Z,2.73
2023-05-12T07:49:56.788Z,4.23
2023-05-12T07:52:25.179Z,4.70
2023-05-12T07:54:53.270Z,6.47
2023-05-12T07:57:21.567Z,8.63
2023-05-12T07:59:49.704Z,9.20
2023-05-12T08:02:20.522Z,9.17
2023-05-12T08:04:48.786Z,8.37
2023-05-12T08:07:18.204Z,6.77
2023-05-12T08:09:48.318Z,5.37
2023-05-12T08:12:16.434Z,5.20
2023-05-12T08:14:44.463Z,4.40
2023-05-12T08:17:12.573Z,4.10
2023-05-12T08:19:42.094Z,3.70
2023-05-12T08:22:10.148Z,2.80
2023-05-12T08:24:38.257Z,3.20
2023-05-12T08:27:06.624Z,3.80
2023-05-12T08:29:34.637Z,2.37
2023-05-12T08:32:03.325Z,3.10
2023-05-12T08:34:31.487Z,2.47
2023-05-12T08:37:01.171Z,2.50
2023-05-12T08:39:30.886Z,2.10
2023-05-12T08:42:10.924Z,2.30
2023-05-12T08:44:39.436Z,2.50
2023-05-12T08:47:07.936Z,2.40
2023-05-12T08:49:38.619Z,2.13
2023-05-12T08:52:09.802Z,2.30
2023-05-12T08:54:54.845Z,2.30
2023-05-12T08:57:26.391Z,2.20
2023-05-12T08:59:56.985Z,2.30
2023-05-12T09:02:25.735Z,2.70
2023-05-12T09:04:54.920Z,2.50
2023-05-12T09:07:26.566Z,2.40
2023-05-12T09:09:59.165Z,2.27
2023-05-12T09:12:32.327Z,2.33
2023-05-12T09:15:05.497Z,2.60
2023-05-12T09:17:33.585Z,2.20
2023-05-12T09:20:02.863Z,2.17
2023-05-12T09:22:33.577Z,2.10
2023-05-12T09:25:01.822Z,2.17
2023-05-12T09:27:30.919Z,3.00
2023-05-12T09:29:59.905Z,2.20
2023-05-12T09:32:32.867Z,2.30
2023-05-12T09:35:05.148Z,2.10
2023-05-12T09:37:35.794Z,2.50
2023-05-12T09:40:07.271Z,2.37
2023-05-12T09:42:36.702Z,2.23
2023-05-12T09:45:05.721Z,2.50
2023-05-12T09:47:38.984Z,2.00
2023-05-12T09:50:10.037Z,2.30
2023-05-12T09:52:41.097Z,2.20
2023-05-12T09:55:11.569Z,2.37
2023-05-12T09:57:41.695Z,1.90
2023-05-12T10:00:25.769Z,2.00
2023-05-12T10:03:02.515Z,1.90
2023-05-12T10:05:32.608Z,2.37
2023-05-12T10:08:04.568Z,2.40
2023-05-12T10:10:35.324Z,2.37
2023-05-12T10:13:04.550Z,2.37
2023-05-12T10:15:33.696Z,2.10
2023-05-12T10:18:02.473Z,2.47
2023-05-12T10:20:31.554Z,1.83
2023-05-12T10:23:02.135Z,1.80
2023-05-12T10:25:32.631Z,2.70
2023-05-12T10:28:03.942Z,2.30
2023-05-12T10:30:32.666Z,2.03
2023-05-12T10:33:01.976Z,1.63
2023-05-12T10:35:34.469Z,2.80
2023-05-12T10:38:08.525Z,2.37
2023-05-12T10:40:36.790Z,2.60
2023-05-12T10:43:05.019Z,1.87
2023-05-12T10:45:37.354Z,2.60
2023-05-12T10:48:08.390Z,1.87
2023-05-12T10:50:36.597Z,2.20
2023-05-12T10:53:05.914Z,2.00
2023-05-12T10:55:37.242Z,1.83
2023-05-12T10:58:08.683Z,2.00
2023-05-12T11:00:47.075Z,2.10
2023-05-12T11:03:18.897Z,2.13
2023-05-12T11:06:02.910Z,1.70
2023-05-12T11:08:35.676Z,2.10
2023-05-12T11:11:04.507Z,2.70
2023-05-12T11:13:32.542Z,2.40
2023-05-12T11:16:00.632Z,2.00
2023-05-12T11:18:28.622Z,2.07
2023-05-12T11:20:56.662Z,1.60
2023-05-12T11:23:29.410Z,2.67
2023-05-12T11:25:58.811Z,2.87
2023-05-12T11:28:27.072Z,2.20
2023-05-12T11:30:55.898Z,2.80
2023-05-12T11:33:24.424Z,1.93
2023-05-12T11:35:52.444Z,2.10
2023-05-12T11:38:24.236Z,2.17
2023-05-12T11:40:52.335Z,1.90
2023-05-12T11:43:23.278Z,2.00
2023-05-12T11:45:51.431Z,2.20
2023-05-12T11:48:19.636Z,2.20
2023-05-12T11:50:48.095Z,2.40
2023-05-12T11:53:19.801Z,2.03
2023-05-12T11:55:51.889Z,1.93
2023-05-12T11:58:26.501Z,1.97
2023-05-12T12:00:55.239Z,2.40
2023-05-12T12:03:23.651Z,2.13
2023-05-12T12:06:02.954Z,2.17
2023-05-12T12:08:31.801Z,2.40
2023-05-12T12:11:01.417Z,1.90
2023-05-12T12:13:32.941Z,1.80
2023-05-12T12:16:01.048Z,1.97
2023-05-12T12:18:29.108Z,1.70
2023-05-12T12:20:57.178Z,2.00
2023-05-12T12:23:25.511Z,1.93
2023-05-12T12:25:53.654Z,1.70
2023-05-12T12:28:21.641Z,2.50
2023-05-12T12:30:51.391Z,1.63
2023-05-12T12:33:20.702Z,2.07
2023-05-12T12:35:48.916Z,1.70
2023-05-12T12:38:17.372Z,1.70
2023-05-12T12:40:46.242Z,1.97
2023-05-12T12:43:14.808Z,1.83
2023-05-12T12:45:42.759Z,1.80
2023-05-12T12:48:12.278Z,1.90
2023-05-12T12:50:40.675Z,2.50
2023-05-12T12:53:09.728Z,2.47
2023-05-12T12:55:37.851Z,2.13
2023-05-12T12:58:05.939Z,2.37
2023-05-12T13:00:34.090Z,2.30
2023-05-12T13:03:02.234Z,2.60
2023-05-12T13:05:31.709Z,3.03
2023-05-12T13:07:59.767Z,2.60
2023-05-12T13:10:27.896Z,2.57
2023-05-12T13:12:56.058Z,2.50
2023-05-12T13:15:24.238Z,2.40
2023-05-12T13:17:52.578Z,3.07
2023-05-12T13:20:20.851Z,2.80
2023-05-12T13:22:50.604Z,2.30
2023-05-12T13:25:18.850Z,2.93
2023-05-12T13:27:47.009Z,2.93
2023-05-12T13:30:15.447Z,2.67
2023-05-12T13:32:43.564Z,3.07
2023-05-12T13:35:11.803Z,2.20
2023-05-12T13:37:39.781Z,2.60
2023-05-12T13:40:10.893Z,2.63
2023-05-12T13:42:38.955Z,2.63
2023-05-12T13:45:09.156Z,3.00
2023-05-12T13:47:37.657Z,3.00
2023-05-12T13:50:07.254Z,3.10
2023-05-12T13:52:35.429Z,2.70
2023-05-12T13:55:03.474Z,2.50
2023-05-12T13:57:32.765Z,3.30
2023-05-12T14:00:00.893Z,2.47
2023-05-12T14:02:28.907Z,3.00
2023-05-12T14:04:57.532Z,3.60
2023-05-12T14:07:25.568Z,5.50
2023-05-12T14:09:53.595Z,7.47
2023-05-12T14:12:21.838Z,7.57
2023-05-12T14:14:51.300Z,6.83
2023-05-12T14:17:19.396Z,6.50
2023-05-12T14:19:47.464Z,5.30
2023-05-12T14:22:25.673Z,4.53
2023-05-12T14:24:55.542Z,5.00
2023-05-12T14:27:23.763Z,4.17
2023-05-12T14:29:53.129Z,4.87
2023-05-12T14:32:21.213Z,4.87
2023-05-12T14:34:49.166Z,3.60
2023-05-12T14:37:17.175Z,3.30
2023-05-12T14:39:45.276Z,3.80
2023-05-12T14:42:13.294Z,3.63
2023-05-12T14:44:41.288Z,3.50
2023-05-12T14:47:10.573Z,3.50
2023-05-12T14:49:38.531Z,3.63
2023-05-12T14:52:07.150Z,4.00
2023-05-12T14:54:35.288Z,3.57
2023-05-12T14:57:03.535Z,3.70
2023-05-12T14:59:31.710Z,3.43
2023-05-12T15:01:59.817Z,3.40
2023-05-12T15:04:29.146Z,3.10
2023-05-12T15:06:57.196Z,3.20
2023-05-12T15:09:25.134Z,3.47
2023-05-12T15:11:53.323Z,4.00
2023-05-12T15:14:21.307Z,3.13
2023-05-12T15:16:49.296Z,3.30
2023-05-12T15:19:17.638Z,3.80
2023-05-12T15:21:47.056Z,3.20
2023-05-12T15:24:15.128Z,3.40
2023-05-12T15:26:43.152Z,3.60
2023-05-12T15:29:11.221Z,3.83
2023-05-12T15:31:39.315Z,2.37
2023-05-12T15:34:07.306Z,3.23
2023-05-12T15:36:35.291Z,2.77
2023-05-12T15:39:05.002Z,3.53
2023-05-12T15:41:33.400Z,3.40
2023-05-12T15:44:01.386Z,3.40
2023-05-12T15:46:30.834Z,3.27
2023-05-12T15:48:59.127Z,3.13
2023-05-12T15:51:28.388Z,2.97
2023-05-12T15:53:56.433Z,2.30
2023-05-12T15:56:25.744Z,2.87
2023-05-12T15:58:53.783Z,3.07
2023-05-12T16:01:22.588Z,2.73
2023-05-12T16:03:51.757Z,2.43
2023-05-12T16:06:19.968Z,3.20
2023-05-12T16:08:47.898Z,2.80
2023-05-12T16:11:15.901Z,2.50
2023-05-12T16:13:45.361Z,3.23
2023-05-12T16:16:13.474Z,2.47
2023-05-12T16:18:42.809Z,2.50
2023-05-12T16:21:11.736Z,2.60
2023-05-12T16:23:39.712Z,3.40
2023-05-12T16:26:07.910Z,2.73
2023-05-12T16:28:35.944Z,2.07
2023-05-12T16:31:05.666Z,2.67
2023-05-12T16:33:33.690Z,3.03
2023-05-12T16:36:01.667Z,2.90
2023-05-12T16:38:32.179Z,2.10
2023-05-12T16:41:01.533Z,2.77
2023-05-12T16:43:29.566Z,2.43
2023-05-12T16:46:01.902Z,2.70
2023-05-12T16:48:34.737Z,2.53
2023-05-12T16:51:04.221Z,2.70
2023-05-12T16:53:32.476Z,2.47
2023-05-12T16:56:01.214Z,2.63
2023-05-12T16:58:31.399Z,2.30
2023-05-12T17:01:00.731Z,2.00
2023-05-12T17:03:29.138Z,3.43
2023-05-12T17:05:58.713Z,2.23
2023-05-12T17:08:26.778Z,2.37
2023-05-12T17:10:54.796Z,2.40
2023-05-12T17:13:23.166Z,3.20
2023-05-12T17:15:52.464Z,2.17
2023-05-12T17:18:20.871Z,2.90
2023-05-12T17:20:49.058Z,2.70
2023-05-12T17:23:18.402Z,2.47
2023-05-12T17:25:46.409Z,1.87
2023-05-12T17:28:14.432Z,2.40
2023-05-12T17:30:42.995Z,2.30
2023-05-12T17:33:11.293Z,2.70
2023-05-12T17:35:39.342Z,2.00
2023-05-12T17:38:07.813Z,2.40
2023-05-12T17:40:37.144Z,2.50
2023-05-12T17:43:05.211Z,2.37
2023-05-12T17:45:33.505Z,2.17
2023-05-12T17:48:01.685Z,2.00
2023-05-12T17:50:29.726Z,2.10
2023-05-12T17:52:57.940Z,3.00
2023-05-12T17:55:25.950Z,2.03
2023-05-12T17:57:55.602Z,2.33
2023-05-12T18:00:23.929Z,2.70
2023-05-12T18:02:52.202Z,2.40
2023-05-12T18:05:20.644Z,2.10
2023-05-12T18:07:48.878Z,2.10
2023-05-12T18:10:17.199Z,2.67
2023-05-12T18:12:45.176Z,3.50
2023-05-12T18:15:16.782Z,3.73
2023-05-12T18:17:45.294Z,3.33
2023-05-12T18:20:13.760Z,3.50
2023-05-12T18:22:41.822Z,3.87
2023-05-12T18:25:12.753Z,3.10
2023-05-12T18:27:40.810Z,4.20
2023-05-12T18:30:10.028Z,3.73
2023-05-12T18:32:39.639Z,4.03
2023-05-12T18:35:09.343Z,3.87
2023-05-12T18:37:37.755Z,4.03
2023-05-12T18:40:07.066Z,4.00
2023-05-12T18:42:35.878Z,3.90
2023-05-12T18:45:04.252Z,4.13
2023-05-12T18:47:32.353Z,4.80
2023-05-12T18:50:02.049Z,4.23
2023-05-12T18:52:29.996Z,4.30
2023-05-12T18:54:57.992Z,4.13
2023-05-12T18:57:26.010Z,4.57
2023-05-12T18:59:54.037Z,4.20
2023-05-12T19:02:22.384Z,4.20
2023-05-12T19:04:50.585Z,4.63
2023-05-12T19:07:19.998Z,4.80
2023-05-12T19:09:48.001Z,4.20
2023-05-12T19:12:16.183Z,4.13
2023-05-12T19:14:44.639Z,4.00
2023-05-12T19:17:17.101Z,4.07
2023-05-12T19:19:45.544Z,4.43
2023-05-12T19:22:13.799Z,3.87
2023-05-12T19:24:43.188Z,3.93
2023-05-12T19:27:11.273Z,4.77
2023-05-12T19:29:41.787Z,3.77
2023-05-12T19:32:10.023Z,3.77
2023-05-12T19:34:38.179Z,3.43
2023-05-12T19:37:06.970Z,3.60
2023-05-12T19:39:34.949Z,4.00
2023-05-12T19:42:04.410Z,3.63
2023-05-12T19:44:32.411Z,3.70
2023-05-12T19:47:04.614Z,3.40
2023-05-12T19:49:34.535Z,3.83
2023-05-12T19:52:02.824Z,3.47
2023-05-12T19:54:31.530Z,3.70
2023-05-12T19:56:59.642Z,3.53
2023-05-12T19:59:28.921Z,3.20
2023-05-12T20:01:57.039Z,3.70
2023-05-12T20:04:25.415Z,3.67
2023-05-12T20:06:54.369Z,3.13
2023-05-12T20:09:24.608Z,3.20
2023-05-12T20:11:52.772Z,3.67
2023-05-12T20:14:20.787Z,2.83
2023-05-12T20:16:50.369Z,4.00
2023-05-12T20:19:19.016Z,3.53
2023-05-12T20:21:47.060Z,3.50
2023-05-12T20:24:15.384Z,4.03
2023-05-12T20:26:43.396Z,3.53
2023-05-12T20:29:11.351Z,3.83
2023-05-12T20:31:39.437Z,3.20
2023-05-12T20:34:08.820Z,3.47
2023-05-12T20:36:37.032Z,3.67
2023-05-12T20:39:05.282Z,4.00
2023-05-12T20:41:33.469Z,3.40
2023-05-12T20:44:01.413Z,3.67
2023-05-12T20:46:30.126Z,4.60
2023-05-12T20:48:58.525Z,3.30
2023-05-12T20:51:28.279Z,3.27
2023-05-12T20:53:56.497Z,3.90
2023-05-12T20:56:24.763Z,3.30
2023-05-12T20:58:52.721Z,4.37
2023-05-12T21:01:20.828Z,3.23
2023-05-12T21:03:49.448Z,3.33
2023-05-12T21:06:17.438Z,3.93
2023-05-12T21:08:47.197Z,2.97
2023-05-12T21:11:16.863Z,3.17
2023-05-12T21:13:44.960Z,3.37
2023-05-12T21:16:13.023Z,3.87
2023-05-12T21:18:41.090Z,3.20
2023-05-12T21:21:09.294Z,2.77
2023-05-12T21:23:37.433Z,3.53
2023-05-12T21:26:07.930Z,3.40
2023-05-12T21:28:36.354Z,3.10
2023-05-12T21:31:04.703Z,2.83
2023-05-12T21:33:33.202Z,3.20
2023-05-12T21:36:01.142Z,3.40
2023-05-12T21:38:29.270Z,3.30
2023-05-12T21:40:57.306Z,3.73
2023-05-12T21:43:26.613Z,3.10
2023-05-12T21:45:54.883Z,2.80
2023-05-12T21:48:23.034Z,3.40
2023-05-12T21:50:59.724Z,3.23
2023-05-12T21:53:28.085Z,3.27
2023-05-12T21:55:56.341Z,3.40
2023-05-12T21:58:26.077Z,3.10
2023-05-12T22:00:54.539Z,3.50
2023-05-12T22:03:24.859Z,3.20
2023-05-12T22:05:53.049Z,2.90
2023-05-12T22:08:21.287Z,2.30
2023-05-12T22:10:49.358Z,3.13
2023-05-12T22:13:17.299Z,3.57
2023-05-12T22:15:46.665Z,3.43
2023-05-12T22:18:14.714Z,2.90
2023-05-12T22:20:42.819Z,3.23
2023-05-12T22:23:10.842Z,3.07
2023-05-12T22:25:38.929Z,3.17
2023-05-12T22:28:07.356Z,3.20
2023-05-12T22:30:35.417Z,3.00
2023-05-12T22:33:04.972Z,3.30
2023-05-12T22:35:33.037Z,2.97
2023-05-12T22:38:01.080Z,3.20
2023-05-12T22:40:29.148Z,2.80
2023-05-12T22:42:57.151Z,2.63
2023-05-12T22:45:25.362Z,3.33
2023-05-12T22:47:53.542Z,3.03
2023-05-12T22:50:23.584Z,2.80
2023-05-12T22:52:52.870Z,2.57
2023-05-12T22:55:21.275Z,2.83
2023-05-12T22:57:49.260Z,3.50
2023-05-12T23:00:17.762Z,2.80
2023-05-12T23:02:45.839Z,3.60
2023-05-12T23:05:13.854Z,3.20
2023-05-12T23:07:43.251Z,3.10
2023-05-12T23:10:11.846Z,3.13
2023-05-12T23:12:40.144Z,2.90
2023-05-12T23:15:09.947Z,3.00
2023-05-12T23:17:37.991Z,2.70
2023-05-12T23:20:08.359Z,2.73
2023-05-12T23:22:36.336Z,3.00
2023-05-12T23:25:06.368Z,2.80
2023-05-12T23:27:34.373Z,3.23
2023-05-12T23:30:02.361Z,2.80
2023-05-12T23:32:31.124Z,2.70
2023-05-12T23:34:59.232Z,3.57
2023-05-12T23:37:27.352Z,2.47
2023-05-12T23:39:55.457Z,3.00
2023-05-12T23:42:24.740Z,2.97
2023-05-12T23:44:52.803Z,2.70
2023-05-12T23:47:20.839Z,3.20
2023-05-12T23:49:48.793Z,3.40
2023-05-12T23:52:16.812Z,3.40
2023-05-12T23:54:44.782Z,3.50
2023-05-12T23:57:14.106Z,3.10
2023-05-12T23:59:43.429Z,3.00
